LHR weather

London Heathrow Airport
London, England, United Kingdom

Public forecast

Using degrees Celsius for public forecast. Weather courtesy of forecast.io.

METAR (pilot weather report)

Retrieved 2018/11/16 22:20 UTC (12 minutes ago):

EGLL 162220Z 10008KT 2200 BR SCT002 BKN003 09/09 Q1026 BECMG BKN002

TAF (pilot weather forecast)

Retrieved 2018/11/16 18:00 UTC (5 hours ago):

TAF EGLL 161701Z 1618/1724 09006KT 3000 BR BKN004 BECMG 1702/1705 6000 NSW BKN006 BECMG 1705/1708 FEW012 BECMG 1710/1713 9999